sensor_id;sensor_type;location;lat;lon;timestamp;temperature;humidity
837;DHT22;400;53.550;9.932;2023-05-18T00:01:58;10.30;99.90
837;DHT22;400;53.550;9.932;2023-05-18T00:04:25;10.30;99.90
837;DHT22;400;53.550;9.932;2023-05-18T00:06:53;10.10;99.90
837;DHT22;400;53.550;9.932;2023-05-18T00:09:23;10.00;99.90
837;DHT22;400;53.550;9.932;2023-05-18T00:11:51;10.00;99.90
837;DHT22;400;53.550;9.932;2023-05-18T00:14:18;10.20;99.90
837;DHT22;400;53.550;9.932;2023-05-18T00:16:46;10.10;99.90
837;DHT22;400;53.550;9.932;2023-05-18T00:19:14;10.20;99.90
837;DHT22;400;53.550;9.932;2023-05-18T00:21:40;10.30;99.90
837;DHT22;400;53.550;9.932;2023-05-18T00:24:07;10.30;99.90
837;DHT22;400;53.550;9.932;2023-05-18T00:26:36;10.30;99.90
837;DHT22;400;53.550;9.932;2023-05-18T00:29:04;10.30;99.90
837;DHT22;400;53.550;9.932;2023-05-18T00:31:32;10.30;99.90
837;DHT22;400;53.550;9.932;2023-05-18T00:34:01;10.30;99.90
837;DHT22;400;53.550;9.932;2023-05-18T00:36:28;10.30;99.90
837;DHT22;400;53.550;9.932;2023-05-18T00:38:57;10.20;99.90
837;DHT22;400;53.550;9.932;2023-05-18T00:41:25;10.20;99.90
837;DHT22;400;53.550;9.932;2023-05-18T00:43:52;10.10;99.90
837;DHT22;400;53.550;9.932;2023-05-18T00:46:21;10.00;99.90
837;DHT22;400;53.550;9.932;2023-05-18T00:48:49;10.00;99.90
837;DHT22;400;53.550;9.932;2023-05-18T00:51:17;10.10;99.90
837;DHT22;400;53.550;9.932;2023-05-18T00:53:46;10.10;99.90
837;DHT22;400;53.550;9.932;2023-05-18T00:56:14;10.20;99.90
837;DHT22;400;53.550;9.932;2023-05-18T00:58:41;10.20;99.90
837;DHT22;400;53.550;9.932;2023-05-18T01:01:09;10.30;99.90
837;DHT22;400;53.550;9.932;2023-05-18T01:03:37;10.30;99.90
837;DHT22;400;53.550;9.932;2023-05-18T01:06:05;10.30;99.90
837;DHT22;400;53.550;9.932;2023-05-18T01:08:33;10.30;99.90
837;DHT22;400;53.550;9.932;2023-05-18T01:11:20;10.30;99.90
837;DHT22;400;53.550;9.932;2023-05-18T01:13:55;10.30;99.90
837;DHT22;400;53.550;9.932;2023-05-18T01:16:27;10.20;99.90
837;DHT22;400;53.550;9.932;2023-05-18T01:19:05;10.20;99.90
837;DHT22;400;53.550;9.932;2023-05-18T01:21:43;10.10;99.90
837;DHT22;400;53.550;9.932;2023-05-18T01:24:23;10.10;99.90
837;DHT22;400;53.550;9.932;2023-05-18T01:26:59;10.10;99.90
837;DHT22;400;53.550;9.932;2023-05-18T01:29:28;9.90;99.90
837;DHT22;400;53.550;9.932;2023-05-18T01:31:56;9.90;99.90
837;DHT22;400;53.550;9.932;2023-05-18T01:34:23;9.90;99.90
837;DHT22;400;53.550;9.932;2023-05-18T01:36:50;10.00;99.90
837;DHT22;400;53.550;9.932;2023-05-18T01:39:16;10.10;99.90
837;DHT22;400;53.550;9.932;2023-05-18T01:41:50;10.10;99.90
837;DHT22;400;53.550;9.932;2023-05-18T01:44:23;10.20;99.90
837;DHT22;400;53.550;9.932;2023-05-18T01:46:58;10.00;99.90
837;DHT22;400;53.550;9.932;2023-05-18T01:49:30;10.00;99.90
837;DHT22;400;53.550;9.932;2023-05-18T01:52:02;10.00;99.90
837;DHT22;400;53.550;9.932;2023-05-18T01:54:31;10.10;99.90
837;DHT22;400;53.550;9.932;2023-05-18T01:56:59;10.10;99.90
837;DHT22;400;53.550;9.932;2023-05-18T01:59:28;10.10;99.90
837;DHT22;400;53.550;9.932;2023-05-18T02:01:58;10.10;99.90
837;DHT22;400;53.550;9.932;2023-05-18T02:04:26;10.00;99.90
837;DHT22;400;53.550;9.932;2023-05-18T02:06:53;10.00;99.90
837;DHT22;400;53.550;9.932;2023-05-18T02:09:20;10.00;99.90
837;DHT22;400;53.550;9.932;2023-05-18T02:11:47;9.80;99.90
837;DHT22;400;53.550;9.932;2023-05-18T02:14:14;9.80;99.90
837;DHT22;400;53.550;9.932;2023-05-18T02:16:42;9.80;99.90
837;DHT22;400;53.550;9.932;2023-05-18T02:19:12;9.90;99.90
837;DHT22;400;53.550;9.932;2023-05-18T02:21:40;9.80;99.90
837;DHT22;400;53.550;9.932;2023-05-18T02:24:08;9.90;99.90
837;DHT22;400;53.550;9.932;2023-05-18T02:26:35;9.80;99.90
837;DHT22;400;53.550;9.932;2023-05-18T02:29:03;9.70;99.90
837;DHT22;400;53.550;9.932;2023-05-18T02:31:31;9.80;99.90
837;DHT22;400;53.550;9.932;2023-05-18T02:33:59;9.90;99.90
837;DHT22;400;53.550;9.932;2023-05-18T02:36:26;9.90;99.90
837;DHT22;400;53.550;9.932;2023-05-18T02:39:01;9.90;99.90
837;DHT22;400;53.550;9.932;2023-05-18T02:41:28;9.90;99.90
837;DHT22;400;53.550;9.932;2023-05-18T02:43:55;9.90;99.90
837;DHT22;400;53.550;9.932;2023-05-18T02:46:22;10.00;99.90
837;DHT22;400;53.550;9.932;2023-05-18T02:48:49;9.90;99.90
837;DHT22;400;53.550;9.932;2023-05-18T02:51:17;9.90;99.90
837;DHT22;400;53.550;9.932;2023-05-18T02:53:44;9.80;99.90
837;DHT22;400;53.550;9.932;2023-05-18T02:56:11;9.80;99.90
837;DHT22;400;53.550;9.932;2023-05-18T02:58:38;9.80;99.90
837;DHT22;400;53.550;9.932;2023-05-18T03:01:08;9.80;99.90
837;DHT22;400;53.550;9.932;2023-05-18T03:03:37;9.80;99.90
837;DHT22;400;53.550;9.932;2023-05-18T03:06:04;9.60;99.90
837;DHT22;400;53.550;9.932;2023-05-18T03:08:34;9.70;99.90
837;DHT22;400;53.550;9.932;2023-05-18T03:11:01;9.70;99.90
837;DHT22;400;53.550;9.932;2023-05-18T03:13:28;9.60;99.90
837;DHT22;400;53.550;9.932;2023-05-18T03:15:55;9.70;99.90
837;DHT22;400;53.550;9.932;2023-05-18T03:18:22;9.80;99.90
837;DHT22;400;53.550;9.932;2023-05-18T03:20:49;9.90;99.90
837;DHT22;400;53.550;9.932;2023-05-18T03:23:18;9.80;99.90
837;DHT22;400;53.550;9.932;2023-05-18T03:25:47;9.80;99.90
837;DHT22;400;53.550;9.932;2023-05-18T03:28:18;9.80;99.90
837;DHT22;400;53.550;9.932;2023-05-18T03:30:45;9.80;99.90
837;DHT22;400;53.550;9.932;2023-05-18T03:33:12;9.80;99.90
837;DHT22;400;53.550;9.932;2023-05-18T03:35:39;9.90;99.90
837;DHT22;400;53.550;9.932;2023-05-18T03:38:06;9.90;99.90
837;DHT22;400;53.550;9.932;2023-05-18T03:40:33;9.80;99.90
837;DHT22;400;53.550;9.932;2023-05-18T03:43:01;9.80;99.90
837;DHT22;400;53.550;9.932;2023-05-18T03:45:28;9.90;99.90
837;DHT22;400;53.550;9.932;2023-05-18T03:47:55;9.90;99.90
837;DHT22;400;53.550;9.932;2023-05-18T03:50:22;9.90;99.90
837;DHT22;400;53.550;9.932;2023-05-18T03:52:49;9.90;99.90
837;DHT22;400;53.550;9.932;2023-05-18T03:55:17;9.90;99.90
837;DHT22;400;53.550;9.932;2023-05-18T03:57:45;9.90;99.90
837;DHT22;400;53.550;9.932;2023-05-18T04:00:14;9.80;99.90
837;DHT22;400;53.550;9.932;2023-05-18T04:02:41;9.80;99.90
837;DHT22;400;53.550;9.932;2023-05-18T04:05:08;9.80;99.90
837;DHT22;400;53.550;9.932;2023-05-18T04:07:36;9.90;99.90
837;DHT22;400;53.550;9.932;2023-05-18T04:10:08;9.90;99.90
837;DHT22;400;53.550;9.932;2023-05-18T04:12:36;10.00;99.90
837;DHT22;400;53.550;9.932;2023-05-18T04:15:03;10.00;99.90
837;DHT22;400;53.550;9.932;2023-05-18T04:17:31;9.90;99.90
837;DHT22;400;53.550;9.932;2023-05-18T04:20:00;9.80;99.90
837;DHT22;400;53.550;9.932;2023-05-18T04:22:31;9.60;99.90
837;DHT22;400;53.550;9.932;2023-05-18T04:25:00;9.60;99.90
837;DHT22;400;53.550;9.932;2023-05-18T04:27:27;9.80;99.90
837;DHT22;400;53.550;9.932;2023-05-18T04:29:54;9.90;99.90
837;DHT22;400;53.550;9.932;2023-05-18T04:32:21;10.00;99.90
837;DHT22;400;53.550;9.932;2023-05-18T04:34:52;10.00;99.90
837;DHT22;400;53.550;9.932;2023-05-18T04:37:23;10.00;99.90
837;DHT22;400;53.550;9.932;2023-05-18T04:39:50;10.10;99.90
837;DHT22;400;53.550;9.932;2023-05-18T04:42:18;10.10;99.90
837;DHT22;400;53.550;9.932;2023-05-18T04:44:45;10.20;99.90
837;DHT22;400;53.550;9.932;2023-05-18T04:47:13;10.30;99.90
837;DHT22;400;53.550;9.932;2023-05-18T04:49:40;10.20;99.90
837;DHT22;400;53.550;9.932;2023-05-18T04:52:09;10.10;99.90
837;DHT22;400;53.550;9.932;2023-05-18T04:54:36;10.10;99.90
837;DHT22;400;53.550;9.932;2023-05-18T04:57:06;10.10;99.90
837;DHT22;400;53.550;9.932;2023-05-18T04:59:32;10.10;99.90
837;DHT22;400;53.550;9.932;2023-05-18T05:02:01;10.10;99.90
837;DHT22;400;53.550;9.932;2023-05-18T05:04:28;10.10;99.90
837;DHT22;400;53.550;9.932;2023-05-18T05:06:55;10.10;99.90
837;DHT22;400;53.550;9.932;2023-05-18T05:09:24;10.20;99.90
837;DHT22;400;53.550;9.932;2023-05-18T05:11:50;10.20;99.90
837;DHT22;400;53.550;9.932;2023-05-18T05:14:17;10.20;99.90
837;DHT22;400;53.550;9.932;2023-05-18T05:16:44;10.20;99.90
837;DHT22;400;53.550;9.932;2023-05-18T05:19:11;10.20;99.90
837;DHT22;400;53.550;9.932;2023-05-18T05:21:38;10.30;99.90
837;DHT22;400;53.550;9.932;2023-05-18T05:24:06;10.30;99.90
837;DHT22;400;53.550;9.932;2023-05-18T05:26:34;10.40;99.80
837;DHT22;400;53.550;9.932;2023-05-18T05:29:01;10.30;99.90
837;DHT22;400;53.550;9.932;2023-05-18T05:31:28;10.00;99.90
837;DHT22;400;53.550;9.932;2023-05-18T05:33:55;10.00;99.90
837;DHT22;400;53.550;9.932;2023-05-18T05:36:22;9.90;99.90
837;DHT22;400;53.550;9.932;2023-05-18T05:38:49;9.90;99.90
837;DHT22;400;53.550;9.932;2023-05-18T05:41:15;9.90;99.90
837;DHT22;400;53.550;9.932;2023-05-18T05:43:44;9.80;99.90
837;DHT22;400;53.550;9.932;2023-05-18T05:46:10;9.90;99.90
837;DHT22;400;53.550;9.932;2023-05-18T05:48:38;10.00;99.90
837;DHT22;400;53.550;9.932;2023-05-18T05:51:05;10.10;99.90
837;DHT22;400;53.550;9.932;2023-05-18T05:53:31;10.20;99.90
837;DHT22;400;53.550;9.932;2023-05-18T05:55:58;10.20;99.90
837;DHT22;400;53.550;9.932;2023-05-18T05:58:25;10.20;99.90
837;DHT22;400;53.550;9.932;2023-05-18T06:00:53;10.20;99.90
837;DHT22;400;53.550;9.932;2023-05-18T06:03:20;10.20;99.90
837;DHT22;400;53.550;9.932;2023-05-18T06:05:47;9.90;99.90
837;DHT22;400;53.550;9.932;2023-05-18T06:08:17;10.10;99.90
837;DHT22;400;53.550;9.932;2023-05-18T06:10:44;10.10;99.90
837;DHT22;400;53.550;9.932;2023-05-18T06:13:10;10.40;99.90
837;DHT22;400;53.550;9.932;2023-05-18T06:15:37;10.60;99.60
837;DHT22;400;53.550;9.932;2023-05-18T06:18:05;10.60;99.50
837;DHT22;400;53.550;9.932;2023-05-18T06:20:35;10.50;99.90
837;DHT22;400;53.550;9.932;2023-05-18T06:23:02;10.70;99.40
837;DHT22;400;53.550;9.932;2023-05-18T06:25:29;10.70;99.50
837;DHT22;400;53.550;9.932;2023-05-18T06:27:56;10.70;99.80
837;DHT22;400;53.550;9.932;2023-05-18T06:30:23;10.50;99.90
837;DHT22;400;53.550;9.932;2023-05-18T06:32:50;10.40;99.50
837;DHT22;400;53.550;9.932;2023-05-18T06:35:18;10.20;99.60
837;DHT22;400;53.550;9.932;2023-05-18T06:37:45;10.20;99.80
837;DHT22;400;53.550;9.932;2023-05-18T06:40:12;10.40;99.90
837;DHT22;400;53.550;9.932;2023-05-18T06:42:39;10.60;99.70
837;DHT22;400;53.550;9.932;2023-05-18T06:45:07;10.60;99.50
837;DHT22;400;53.550;9.932;2023-05-18T06:47:34;10.50;99.60
837;DHT22;400;53.550;9.932;2023-05-18T06:50:04;10.60;99.50
837;DHT22;400;53.550;9.932;2023-05-18T06:52:37;10.50;99.50
837;DHT22;400;53.550;9.932;2023-05-18T06:55:06;10.50;99.60
837;DHT22;400;53.550;9.932;2023-05-18T06:57:35;10.70;99.70
837;DHT22;400;53.550;9.932;2023-05-18T07:00:03;10.80;99.50
837;DHT22;400;53.550;9.932;2023-05-18T07:02:34;10.80;99.10
837;DHT22;400;53.550;9.932;2023-05-18T07:05:01;10.90;99.10
837;DHT22;400;53.550;9.932;2023-05-18T07:07:32;10.70;99.00
837;DHT22;400;53.550;9.932;2023-05-18T07:10:01;10.30;98.90
837;DHT22;400;53.550;9.932;2023-05-18T07:12:28;10.50;99.30
837;DHT22;400;53.550;9.932;2023-05-18T07:14:54;10.70;99.00
837;DHT22;400;53.550;9.932;2023-05-18T07:17:21;11.00;99.10
837;DHT22;400;53.550;9.932;2023-05-18T07:19:48;11.00;98.40
837;DHT22;400;53.550;9.932;2023-05-18T07:22:16;11.10;98.30
837;DHT22;400;53.550;9.932;2023-05-18T07:24:43;11.20;98.40
837;DHT22;400;53.550;9.932;2023-05-18T07:27:11;11.40;98.40
837;DHT22;400;53.550;9.932;2023-05-18T07:29:38;11.40;98.60
837;DHT22;400;53.550;9.932;2023-05-18T07:32:06;11.50;98.70
837;DHT22;400;53.550;9.932;2023-05-18T07:34:33;11.70;98.30
837;DHT22;400;53.550;9.932;2023-05-18T07:37:00;11.80;98.20
837;DHT22;400;53.550;9.932;2023-05-18T07:39:27;11.90;98.10
837;DHT22;400;53.550;9.932;2023-05-18T07:41:55;12.00;98.00
837;DHT22;400;53.550;9.932;2023-05-18T07:44:23;12.20;97.60
837;DHT22;400;53.550;9.932;2023-05-18T07:46:50;12.30;97.50
837;DHT22;400;53.550;9.932;2023-05-18T07:49:17;12.30;98.10
837;DHT22;400;53.550;9.932;2023-05-18T07:51:44;12.20;98.40
837;DHT22;400;53.550;9.932;2023-05-18T07:54:11;12.20;98.00
837;DHT22;400;53.550;9.932;2023-05-18T07:56:38;12.30;97.60
837;DHT22;400;53.550;9.932;2023-05-18T07:59:07;12.40;97.90
837;DHT22;400;53.550;9.932;2023-05-18T08:01:37;12.40;97.70
837;DHT22;400;53.550;9.932;2023-05-18T08:04:06;12.60;97.40
837;DHT22;400;53.550;9.932;2023-05-18T08:06:34;12.60;97.00
837;DHT22;400;53.550;9.932;2023-05-18T08:09:01;12.70;96.80
837;DHT22;400;53.550;9.932;2023-05-18T08:11:27;12.40;96.80
837;DHT22;400;53.550;9.932;2023-05-18T08:13:54;12.10;97.10
837;DHT22;400;53.550;9.932;2023-05-18T08:16:21;11.90;97.60
837;DHT22;400;53.550;9.932;2023-05-18T08:18:49;11.90;97.60
837;DHT22;400;53.550;9.932;2023-05-18T08:21:16;11.80;97.70
837;DHT22;400;53.550;9.932;2023-05-18T08:23:45;11.70;97.60
837;DHT22;400;53.550;9.932;2023-05-18T08:26:14;11.50;97.80
837;DHT22;400;53.550;9.932;2023-05-18T08:28:44;11.10;97.90
837;DHT22;400;53.550;9.932;2023-05-18T08:31:11;10.90;98.30
837;DHT22;400;53.550;9.932;2023-05-18T08:33:38;11.00;98.30
837;DHT22;400;53.550;9.932;2023-05-18T08:36:07;10.90;98.40
837;DHT22;400;53.550;9.932;2023-05-18T08:38:35;11.10;98.30
837;DHT22;400;53.550;9.932;2023-05-18T08:41:07;11.30;98.80
837;DHT22;400;53.550;9.932;2023-05-18T08:43:39;11.40;97.60
837;DHT22;400;53.550;9.932;2023-05-18T08:46:16;11.50;97.50
837;DHT22;400;53.550;9.932;2023-05-18T08:48:47;11.60;97.30
837;DHT22;400;53.550;9.932;2023-05-18T08:51:22;11.70;97.40
837;DHT22;400;53.550;9.932;2023-05-18T08:53:54;11.60;97.50
837;DHT22;400;53.550;9.932;2023-05-18T08:56:23;11.90;97.40
837;DHT22;400;53.550;9.932;2023-05-18T08:58:56;12.10;97.30
837;DHT22;400;53.550;9.932;2023-05-18T09:01:26;12.20;97.30
837;DHT22;400;53.550;9.932;2023-05-18T09:03:57;12.20;97.00
837;DHT22;400;53.550;9.932;2023-05-18T09:06:28;12.10;96.70
837;DHT22;400;53.550;9.932;2023-05-18T09:08:59;12.20;97.10
837;DHT22;400;53.550;9.932;2023-05-18T09:11:32;12.30;96.80
837;DHT22;400;53.550;9.932;2023-05-18T09:13:59;12.30;96.40
837;DHT22;400;53.550;9.932;2023-05-18T09:16:27;12.20;96.50
837;DHT22;400;53.550;9.932;2023-05-18T09:18:54;12.30;96.80
837;DHT22;400;53.550;9.932;2023-05-18T09:21:21;12.50;96.60
837;DHT22;400;53.550;9.932;2023-05-18T09:23:50;12.60;96.10
837;DHT22;400;53.550;9.932;2023-05-18T09:26:18;12.80;96.40
837;DHT22;400;53.550;9.932;2023-05-18T09:28:50;12.60;95.80
837;DHT22;400;53.550;9.932;2023-05-18T09:31:20;12.00;96.20
837;DHT22;400;53.550;9.932;2023-05-18T09:33:50;12.00;96.40
837;DHT22;400;53.550;9.932;2023-05-18T09:36:25;11.80;96.60
837;DHT22;400;53.550;9.932;2023-05-18T09:38:57;12.00;97.20
837;DHT22;400;53.550;9.932;2023-05-18T09:41:26;12.30;97.00
837;DHT22;400;53.550;9.932;2023-05-18T09:43:54;12.60;96.80
837;DHT22;400;53.550;9.932;2023-05-18T09:46:23;12.80;96.80
837;DHT22;400;53.550;9.932;2023-05-18T09:48:55;12.90;96.30
837;DHT22;400;53.550;9.932;2023-05-18T09:51:29;13.00;95.90
837;DHT22;400;53.550;9.932;2023-05-18T09:53:58;12.80;95.90
837;DHT22;400;53.550;9.932;2023-05-18T09:56:25;12.50;95.70
837;DHT22;400;53.550;9.932;2023-05-18T09:58:54;12.30;95.70
837;DHT22;400;53.550;9.932;2023-05-18T10:01:22;12.30;96.40
837;DHT22;400;53.550;9.932;2023-05-18T10:03:53;12.30;96.20
837;DHT22;400;53.550;9.932;2023-05-18T10:06:30;12.40;96.10
837;DHT22;400;53.550;9.932;2023-05-18T10:09:01;12.50;96.30
837;DHT22;400;53.550;9.932;2023-05-18T10:11:31;12.60;96.00
837;DHT22;400;53.550;9.932;2023-05-18T10:13:58;12.80;96.00
837;DHT22;400;53.550;9.932;2023-05-18T10:16:26;12.90;95.90
837;DHT22;400;53.550;9.932;2023-05-18T10:18:54;13.10;95.60
837;DHT22;400;53.550;9.932;2023-05-18T10:21:23;13.30;95.40
837;DHT22;400;53.550;9.932;2023-05-18T10:23:59;13.40;95.10
837;DHT22;400;53.550;9.932;2023-05-18T10:26:35;13.50;95.40
837;DHT22;400;53.550;9.932;2023-05-18T10:29:08;13.60;95.40
837;DHT22;400;53.550;9.932;2023-05-18T10:31:36;13.70;94.90
837;DHT22;400;53.550;9.932;2023-05-18T10:34:04;13.50;93.90
837;DHT22;400;53.550;9.932;2023-05-18T10:36:32;13.10;93.90
837;DHT22;400;53.550;9.932;2023-05-18T10:39:02;13.20;94.30
837;DHT22;400;53.550;9.932;2023-05-18T10:41:32;13.40;95.50
837;DHT22;400;53.550;9.932;2023-05-18T10:44:05;13.50;95.00
837;DHT22;400;53.550;9.932;2023-05-18T10:46:35;13.60;94.30
837;DHT22;400;53.550;9.932;2023-05-18T10:49:03;13.50;94.30
837;DHT22;400;53.550;9.932;2023-05-18T10:51:31;13.40;95.20
837;DHT22;400;53.550;9.932;2023-05-18T10:54:11;13.40;94.70
837;DHT22;400;53.550;9.932;2023-05-18T10:56:42;13.60;95.00
837;DHT22;400;53.550;9.932;2023-05-18T10:59:12;13.80;95.00
837;DHT22;400;53.550;9.932;2023-05-18T11:01:39;13.90;94.80
837;DHT22;400;53.550;9.932;2023-05-18T11:04:07;14.00;94.40
837;DHT22;400;53.550;9.932;2023-05-18T11:06:34;14.00;94.10
837;DHT22;400;53.550;9.932;2023-05-18T11:09:02;14.10;94.10
837;DHT22;400;53.550;9.932;2023-05-18T11:11:49;14.20;94.00
837;DHT22;400;53.550;9.932;2023-05-18T11:14:24;14.00;93.50
837;DHT22;400;53.550;9.932;2023-05-18T11:16:52;13.50;93.50
837;DHT22;400;53.550;9.932;2023-05-18T11:19:24;13.80;94.00
837;DHT22;400;53.550;9.932;2023-05-18T11:21:53;14.00;93.90
837;DHT22;400;53.550;9.932;2023-05-18T11:24:28;14.10;93.90
837;DHT22;400;53.550;9.932;2023-05-18T11:26:58;14.20;93.30
837;DHT22;400;53.550;9.932;2023-05-18T11:29:30;14.40;93.30
837;DHT22;400;53.550;9.932;2023-05-18T11:31:58;14.50;93.30
837;DHT22;400;53.550;9.932;2023-05-18T11:34:43;14.60;93.20
837;DHT22;400;53.550;9.932;2023-05-18T11:37:12;14.50;92.80
837;DHT22;400;53.550;9.932;2023-05-18T11:39:40;14.50;92.80
837;DHT22;400;53.550;9.932;2023-05-18T11:42:09;14.60;92.90
837;DHT22;400;53.550;9.932;2023-05-18T11:44:37;14.60;92.80
837;DHT22;400;53.550;9.932;2023-05-18T11:47:07;14.70;92.70
837;DHT22;400;53.550;9.932;2023-05-18T11:49:43;14.80;92.10
837;DHT22;400;53.550;9.932;2023-05-18T11:52:17;15.00;92.10
837;DHT22;400;53.550;9.932;2023-05-18T11:54:45;15.00;91.80
837;DHT22;400;53.550;9.932;2023-05-18T11:57:16;14.90;91.40
837;DHT22;400;53.550;9.932;2023-05-18T11:59:45;15.00;91.40
837;DHT22;400;53.550;9.932;2023-05-18T12:02:18;15.00;91.00
837;DHT22;400;53.550;9.932;2023-05-18T12:04:46;15.10;91.10
837;DHT22;400;53.550;9.932;2023-05-18T12:07:18;15.20;91.10
837;DHT22;400;53.550;9.932;2023-05-18T12:09:47;14.90;90.80
837;DHT22;400;53.550;9.932;2023-05-18T12:12:17;15.00;91.20
837;DHT22;400;53.550;9.932;2023-05-18T12:14:51;15.00;90.90
837;DHT22;400;53.550;9.932;2023-05-18T12:17:19;15.00;91.20
837;DHT22;400;53.550;9.932;2023-05-18T12:19:49;15.00;90.90
837;DHT22;400;53.550;9.932;2023-05-18T12:22:18;15.10;91.00
837;DHT22;400;53.550;9.932;2023-05-18T12:24:51;14.80;90.70
837;DHT22;400;53.550;9.932;2023-05-18T12:27:26;14.80;91.30
837;DHT22;400;53.550;9.932;2023-05-18T12:29:57;14.70;91.10
837;DHT22;400;53.550;9.932;2023-05-18T12:32:29;14.80;91.50
837;DHT22;400;53.550;9.932;2023-05-18T12:34:56;15.00;91.40
837;DHT22;400;53.550;9.932;2023-05-18T12:37:25;15.20;91.30
837;DHT22;400;53.550;9.932;2023-05-18T12:40:01;15.20;91.20
837;DHT22;400;53.550;9.932;2023-05-18T12:42:34;15.30;91.20
837;DHT22;400;53.550;9.932;2023-05-18T12:45:03;15.20;91.70
837;DHT22;400;53.550;9.932;2023-05-18T12:47:32;15.30;91.20
837;DHT22;400;53.550;9.932;2023-05-18T12:50:01;15.40;90.90
837;DHT22;400;53.550;9.932;2023-05-18T12:52:29;15.50;91.00
837;DHT22;400;53.550;9.932;2023-05-18T12:54:59;15.50;90.50
837;DHT22;400;53.550;9.932;2023-05-18T12:57:27;15.60;90.60
837;DHT22;400;53.550;9.932;2023-05-18T12:59:57;15.70;90.40
837;DHT22;400;53.550;9.932;2023-05-18T13:02:26;15.80;90.10
837;DHT22;400;53.550;9.932;2023-05-18T13:05:04;15.80;90.00
837;DHT22;400;53.550;9.932;2023-05-18T13:07:34;15.80;90.00
837;DHT22;400;53.550;9.932;2023-05-18T13:10:09;15.70;90.10
837;DHT22;400;53.550;9.932;2023-05-18T13:12:42;15.70;88.90
837;DHT22;400;53.550;9.932;2023-05-18T13:15:13;15.60;89.00
837;DHT22;400;53.550;9.932;2023-05-18T13:17:54;15.40;88.80
837;DHT22;400;53.550;9.932;2023-05-18T13:20:22;15.60;90.60
837;DHT22;400;53.550;9.932;2023-05-18T13:22:49;15.60;90.70
837;DHT22;400;53.550;9.932;2023-05-18T13:25:16;15.80;90.70
837;DHT22;400;53.550;9.932;2023-05-18T13:27:43;15.80;90.50
837;DHT22;400;53.550;9.932;2023-05-18T13:30:19;15.90;90.10
837;DHT22;400;53.550;9.932;2023-05-18T13:32:51;15.90;89.20
837;DHT22;400;53.550;9.932;2023-05-18T13:35:21;16.00;89.40
837;DHT22;400;53.550;9.932;2023-05-18T13:37:48;16.10;89.10
837;DHT22;400;53.550;9.932;2023-05-18T13:40:16;16.10;89.10
837;DHT22;400;53.550;9.932;2023-05-18T13:42:45;16.20;89.80
837;DHT22;400;53.550;9.932;2023-05-18T13:45:13;16.20;89.80
837;DHT22;400;53.550;9.932;2023-05-18T13:47:41;16.20;90.10
837;DHT22;400;53.550;9.932;2023-05-18T13:50:10;16.30;90.50
837;DHT22;400;53.550;9.932;2023-05-18T13:52:37;16.30;89.80
837;DHT22;400;53.550;9.932;2023-05-18T13:55:06;16.10;90.40
837;DHT22;400;53.550;9.932;2023-05-18T13:57:33;16.10;90.70
837;DHT22;400;53.550;9.932;2023-05-18T14:00:00;16.10;90.40
837;DHT22;400;53.550;9.932;2023-05-18T14:02:34;16.10;90.40
837;DHT22;400;53.550;9.932;2023-05-18T14:05:04;16.10;90.40
837;DHT22;400;53.550;9.932;2023-05-18T14:07:34;16.10;90.20
837;DHT22;400;53.550;9.932;2023-05-18T14:10:03;16.10;90.20
837;DHT22;400;53.550;9.932;2023-05-18T14:12:30;16.20;89.80
837;DHT22;400;53.550;9.932;2023-05-18T14:15:00;16.20;89.90
837;DHT22;400;53.550;9.932;2023-05-18T14:17:33;16.30;90.00
837;DHT22;400;53.550;9.932;2023-05-18T14:20:04;16.30;89.80
837;DHT22;400;53.550;9.932;2023-05-18T14:22:32;16.40;89.00
837;DHT22;400;53.550;9.932;2023-05-18T14:24:59;16.40;88.90
837;DHT22;400;53.550;9.932;2023-05-18T14:27:26;16.40;88.30
837;DHT22;400;53.550;9.932;2023-05-18T14:29:53;16.40;87.60
837;DHT22;400;53.550;9.932;2023-05-18T14:32:22;16.40;87.30
837;DHT22;400;53.550;9.932;2023-05-18T14:34:49;16.40;87.20
837;DHT22;400;53.550;9.932;2023-05-18T14:37:24;16.40;86.50
837;DHT22;400;53.550;9.932;2023-05-18T14:39:56;16.40;86.60
837;DHT22;400;53.550;9.932;2023-05-18T14:42:24;16.40;86.30
837;DHT22;400;53.550;9.932;2023-05-18T14:44:51;16.40;85.70
837;DHT22;400;53.550;9.932;2023-05-18T14:47:18;16.30;84.20
837;DHT22;400;53.550;9.932;2023-05-18T14:49:45;16.30;83.20
837;DHT22;400;53.550;9.932;2023-05-18T14:52:12;16.40;83.10
837;DHT22;400;53.550;9.932;2023-05-18T14:54:40;16.40;83.20
837;DHT22;400;53.550;9.932;2023-05-18T14:57:07;16.40;83.50
837;DHT22;400;53.550;9.932;2023-05-18T14:59:36;16.50;84.60
837;DHT22;400;53.550;9.932;2023-05-18T15:02:08;16.50;86.20
837;DHT22;400;53.550;9.932;2023-05-18T15:04:38;16.40;87.70
837;DHT22;400;53.550;9.932;2023-05-18T15:07:05;16.40;87.30
837;DHT22;400;53.550;9.932;2023-05-18T15:09:35;16.40;86.90
837;DHT22;400;53.550;9.932;2023-05-18T15:12:05;16.50;86.90
837;DHT22;400;53.550;9.932;2023-05-18T15:14:35;16.50;86.10
837;DHT22;400;53.550;9.932;2023-05-18T15:17:02;16.60;86.60
837;DHT22;400;53.550;9.932;2023-05-18T15:19:30;16.50;85.80
837;DHT22;400;53.550;9.932;2023-05-18T15:21:57;16.50;85.60
837;DHT22;400;53.550;9.932;2023-05-18T15:24:25;16.50;85.20
837;DHT22;400;53.550;9.932;2023-05-18T15:26:53;16.60;85.20
837;DHT22;400;53.550;9.932;2023-05-18T15:29:23;16.60;85.50
837;DHT22;400;53.550;9.932;2023-05-18T15:31:53;16.70;86.00
837;DHT22;400;53.550;9.932;2023-05-18T15:34:20;16.80;85.70
837;DHT22;400;53.550;9.932;2023-05-18T15:36:47;16.80;86.10
837;DHT22;400;53.550;9.932;2023-05-18T15:39:14;16.80;86.50
837;DHT22;400;53.550;9.932;2023-05-18T15:41:41;16.80;86.70
837;DHT22;400;53.550;9.932;2023-05-18T15:44:08;16.80;86.70
837;DHT22;400;53.550;9.932;2023-05-18T15:46:36;16.90;86.50
837;DHT22;400;53.550;9.932;2023-05-18T15:49:04;16.90;85.50
837;DHT22;400;53.550;9.932;2023-05-18T15:51:30;17.00;85.20
837;DHT22;400;53.550;9.932;2023-05-18T15:53:57;17.10;84.90
837;DHT22;400;53.550;9.932;2023-05-18T15:56:26;16.90;84.60
837;DHT22;400;53.550;9.932;2023-05-18T15:58:53;17.00;85.40
837;DHT22;400;53.550;9.932;2023-05-18T16:01:20;16.90;85.60
837;DHT22;400;53.550;9.932;2023-05-18T16:03:48;16.80;85.30
837;DHT22;400;53.550;9.932;2023-05-18T16:06:15;17.20;86.00
837;DHT22;400;53.550;9.932;2023-05-18T16:08:42;18.10;83.40
837;DHT22;400;53.550;9.932;2023-05-18T16:11:10;18.70;80.40
837;DHT22;400;53.550;9.932;2023-05-18T16:13:37;19.50;78.70
837;DHT22;400;53.550;9.932;2023-05-18T16:16:04;20.60;78.40
837;DHT22;400;53.550;9.932;2023-05-18T16:23:35;21.50;75.00
837;DHT22;400;53.550;9.932;2023-05-18T16:26:03;22.80;68.10
837;DHT22;400;53.550;9.932;2023-05-18T16:31:06;23.70;65.20
837;DHT22;400;53.550;9.932;2023-05-18T17:13:12;24.60;60.20
837;DHT22;400;53.550;9.932;2023-05-18T17:45:10;27.20;46.20
837;DHT22;400;53.550;9.932;2023-05-18T17:47:37;25.70;45.80
837;DHT22;400;53.550;9.932;2023-05-18T17:50:06;25.00;44.80
837;DHT22;400;53.550;9.932;2023-05-18T17:52:33;24.30;45.20
837;DHT22;400;53.550;9.932;2023-05-18T17:55:00;23.50;45.90
837;DHT22;400;53.550;9.932;2023-05-18T17:57:29;23.10;46.20
837;DHT22;400;53.550;9.932;2023-05-18T17:59:59;22.70;46.40
837;DHT22;400;53.550;9.932;2023-05-18T18:02:28;22.40;46.70
837;DHT22;400;53.550;9.932;2023-05-18T18:04:56;22.00;47.60